Honoraville, Alabama
Current Conditions -  °F | °C
As of 1:56 PM on Wednesday 26 Nov 2014 (Local Time) from KPRN Reporting Station
Clear Clear  
Wind Chill: 61°   Ceiling: Unl
Heat Index: 61°   Visibility: 10mi
Dew Point: 25°   Wind: 7mph
Humidity: 25%   Direction: NA
Pressure: 30.12"   Gusts: NA
Location:  31.85°N, 86.41°W
Report Text: KPRN 261956Z AUTO VRB06KT 10SM CLR 16/M04 A3012 RMK AO2 SLP199 T01611039
Loading
Personal Weather Stations






























Interactive Weather Map New forecast layout! Learn more

10-Day Weather Forecast

Advertisements
Track Severe Weather on mobile